Time;durP1;ratioP1;P1;durP2;ratioP2;P2;SDS_P1;SDS_P2;PMS_P1;PMS_P2;Temp;Humidity;BMP_temperature;BMP_pressure;BME280_temperature;BME280_humidity;BME280_pressure;Samples;Min_cycle;Max_cycle;Signal;HPM_P1;HPM_P2
2023/09/17 00:01:43;;;;;;;17.17;2.63;;;;;;;17.38;92.22;100634.34;5046153;28;20648;-63
2023/09/17 00:04:15;;;;;;;12.43;3.10;;;;;;;17.43;91.88;100621.81;5037095;28;20784;-60
2023/09/17 00:06:46;;;;;;;13.43;3.03;;;;;;;17.60;92.62;100622.00;5047369;28;20279;-62
2023/09/17 00:09:18;;;;;;;6.33;2.80;;;;;;;17.80;93.21;100623.03;5036846;28;20287;-63
2023/09/17 00:11:48;;;;;;;9.87;3.00;;;;;;;17.99;92.74;100609.91;5047352;28;20869;-62
2023/09/17 00:14:19;;;;;;;10.07;2.80;;;;;;;18.05;92.10;100599.94;5037717;28;20283;-62
2023/09/17 00:16:50;;;;;;;11.13;4.27;;;;;;;18.37;92.19;100621.53;5047676;28;20283;-63
2023/09/17 00:19:23;;;;;;;8.97;2.67;;;;;;;18.58;91.65;100618.84;5037216;28;20321;-61
2023/09/17 00:21:55;;;;;;;9.77;3.27;;;;;;;18.81;91.22;100631.94;5046918;28;20275;-61
2023/09/17 00:24:27;;;;;;;10.50;2.83;;;;;;;18.95;90.70;100626.91;5037241;28;20279;-58
2023/09/17 00:26:57;;;;;;;14.27;3.23;;;;;;;19.08;89.03;100618.41;5047083;28;20291;-61
2023/09/17 00:29:28;;;;;;;13.50;3.30;;;;;;;19.18;89.11;100615.25;5036982;28;20275;-60
2023/09/17 00:31:59;;;;;;;14.87;3.43;;;;;;;19.34;89.33;100619.81;5046761;28;20274;-60
2023/09/17 00:34:31;;;;;;;15.50;2.90;;;;;;;19.28;88.73;100578.59;5036050;28;20356;-63
2023/09/17 00:37:03;;;;;;;16.63;3.47;;;;;;;19.70;87.83;100606.66;5046532;28;20279;-62
2023/09/17 00:39:34;;;;;;;7.67;2.87;;;;;;;20.02;88.26;100596.25;5037018;28;20357;-60
2023/09/17 00:42:04;;;;;;;15.53;3.10;;;;;;;20.14;87.28;100579.69;5040549;28;20629;-60
2023/09/17 00:44:35;;;;;;;11.77;3.43;;;;;;;20.38;85.88;100582.00;5047119;28;20279;-61
2023/09/17 00:47:06;;;;;;;12.20;3.50;;;;;;;20.24;85.76;100535.84;5036388;28;20302;-59
2023/09/17 00:49:39;;;;;;;13.20;3.23;;;;;;;20.74;84.99;100578.38;5046883;28;20282;-60
2023/09/17 00:52:16;;;;;;;8.97;3.07;;;;;;;20.82;83.99;100570.88;5036399;28;20313;-60
2023/09/17 00:54:48;;;;;;;12.50;2.97;;;;;;;20.80;82.62;100572.75;5045143;28;20384;-58
2023/09/17 00:57:30;;;;;;;10.03;2.93;;;;;;;20.62;81.54;100566.63;5036285;28;20348;-59
2023/09/17 01:00:21;;;;;;;13.83;2.80;;;;;;;20.56;82.22;100559.84;5046006;28;20291;-61
2023/09/17 01:03:06;;;;;;;9.75;2.55;;;;;;;20.56;81.09;100565.16;5043718;28;20278;-60
2023/09/17 01:05:46;;;;;;;7.13;2.70;;;;;;;20.65;80.70;100572.63;5036649;28;20055;-61
2023/09/17 01:08:25;;;;;;;12.03;3.40;;;;;;;20.73;79.68;100572.22;5035754;28;20279;-62
2023/09/17 01:11:01;;;;;;;8.70;2.70;;;;;;;20.90;79.50;100568.66;5043391;28;20424;-61
2023/09/17 01:13:34;;;;;;;7.80;2.50;;;;;;;21.05;79.23;100562.50;5020364;28;20787;-62
2023/09/17 01:16:09;;;;;;;11.90;2.80;;;;;;;21.13;77.96;100561.22;5021832;28;20788;-61
2023/09/17 01:18:40;;;;;;;8.87;2.60;;;;;;;21.23;77.70;100570.38;5031727;28;20282;-62
2023/09/17 01:21:26;;;;;;;16.23;2.67;;;;;;;20.65;77.17;100450.50;5022766;28;20315;-62
2023/09/17 01:24:15;;;;;;;7.57;2.30;;;;;;;21.38;75.44;100558.88;5033082;28;20276;-61
2023/09/17 01:26:58;;;;;;;5.18;2.33;;;;;;;21.38;75.78;100550.06;5033477;28;20384;-61
2023/09/17 01:29:33;;;;;;;10.60;2.80;;;;;;;21.47;74.71;100561.06;5020562;28;20052;-62
2023/09/17 01:32:04;;;;;;;9.10;2.50;;;;;;;21.57;74.60;100563.19;5029618;28;20610;-63
2023/09/17 01:34:37;;;;;;;12.00;2.37;;;;;;;21.60;73.10;100568.34;5031589;28;20275;-61
2023/09/17 01:37:12;;;;;;;10.10;2.37;;;;;;;21.43;72.61;100546.22;5022842;28;20470;-61
2023/09/17 01:39:47;;;;;;;15.73;3.23;;;;;;;20.93;72.58;100478.16;5031059;28;20291;-60
2023/09/17 01:42:21;;;;;;;7.50;2.20;;;;;;;21.06;73.09;100536.78;5022651;28;20754;-60
2023/09/17 01:44:53;;;;;;;6.40;2.63;;;;;;;21.11;73.90;100546.19;5031722;28;20302;-60
2023/09/17 01:47:25;;;;;;;12.83;2.93;;;;;;;21.07;74.70;100544.69;5023347;28;20350;-60
2023/09/17 01:49:57;;;;;;;4.67;2.10;;;;;;;21.18;75.72;100540.56;5031698;28;20301;-61
2023/09/17 01:52:32;;;;;;;14.43;2.90;;;;;;;21.32;76.10;100548.63;5022865;28;20378;-61
2023/09/17 01:55:03;;;;;;;10.67;2.80;;;;;;;21.45;75.74;100549.66;5031525;28;20285;-59
2023/09/17 01:57:36;;;;;;;7.13;2.60;;;;;;;21.57;76.09;100532.16;5022379;28;20434;-58
2023/09/17 02:00:14;;;;;;;12.13;2.70;;;;;;;21.45;75.10;100506.28;5021306;28;20643;-60
2023/09/17 02:02:46;;;;;;;7.07;2.57;;;;;;;21.59;74.72;100524.06;5032081;28;20753;-60
2023/09/17 02:05:20;;;;;;;11.20;2.80;;;;;;;21.54;74.69;100525.22;5022513;28;20275;-60
2023/09/17 02:07:51;;;;;;;7.07;2.00;;;;;;;21.70;73.30;100532.28;5031455;28;20635;-59
2023/09/17 02:10:22;;;;;;;9.57;2.30;;;;;;;21.73;74.62;100521.47;5023182;28;20326;-59
2023/09/17 02:12:54;;;;;;;7.70;2.63;;;;;;;21.84;75.02;100519.03;5032546;28;20370;-60
2023/09/17 02:15:24;;;;;;;11.67;2.97;;;;;;;21.91;74.38;100520.38;5020744;28;20314;-59
2023/09/17 02:17:55;;;;;;;9.33;3.00;;;;;;;21.91;73.00;100512.38;5030999;28;20280;-60
2023/09/17 02:20:26;;;;;;;9.97;2.73;;;;;;;21.91;74.35;100515.03;5022144;28;20267;-60
2023/09/17 02:22:56;;;;;;;7.57;2.50;;;;;;;22.00;73.52;100518.97;5032115;28;20402;-60
2023/09/17 02:25:27;;;;;;;9.33;2.50;;;;;;;22.02;72.96;100505.59;5020138;28;20370;-60
2023/09/17 02:27:59;;;;;;;6.30;2.10;;;;;;;21.94;72.27;100485.63;5030402;28;20291;-60
2023/09/17 02:30:30;;;;;;;8.53;2.47;;;;;;;22.16;71.45;100524.22;5020647;28;20262;-60
2023/09/17 02:33:00;;;;;;;12.90;3.23;;;;;;;22.23;71.76;100514.94;5030767;28;20056;-59
2023/09/17 02:35:31;;;;;;;11.83;2.40;;;;;;;22.27;72.40;100489.88;5021441;28;20095;-59
2023/09/17 02:38:03;;;;;;;6.00;2.20;;;;;;;22.56;71.83;100497.84;5030171;28;20040;-60
2023/09/17 02:40:34;;;;;;;12.90;2.40;;;;;;;22.58;71.07;100503.94;5019987;28;20789;-61
2023/09/17 02:43:07;;;;;;;8.17;2.60;;;;;;;22.53;68.36;100500.69;5023322;28;20299;-59
2023/09/17 02:45:40;;;;;;;5.37;2.40;;;;;;;22.37;69.01;100490.16;5031992;28;21014;-59
2023/09/17 02:48:12;;;;;;;8.10;2.20;;;;;;;22.21;68.87;100490.22;5019687;28;20787;-60
2023/09/17 02:50:43;;;;;;;7.13;2.23;;;;;;;22.03;70.63;100499.31;5030978;28;20290;-59
2023/09/17 02:53:14;;;;;;;7.67;2.30;;;;;;;21.97;71.64;100492.56;5020694;28;20294;-60
2023/09/17 02:55:46;;;;;;;9.40;2.73;;;;;;;22.01;71.58;100487.91;5030546;28;20299;-60
2023/09/17 02:58:18;;;;;;;10.77;3.23;;;;;;;22.08;72.68;100494.56;5021085;28;20395;-59
2023/09/17 03:00:49;;;;;;;7.30;2.40;;;;;;;22.11;72.45;100494.38;5030795;28;20380;-59
2023/09/17 03:03:20;;;;;;;8.23;2.40;;;;;;;22.14;72.64;100494.19;5021037;28;20345;-60
2023/09/17 03:05:51;;;;;;;8.47;2.93;;;;;;;22.00;72.63;100449.81;5031971;28;20049;-60
2023/09/17 03:08:22;;;;;;;9.43;2.00;;;;;;;22.16;73.82;100492.28;5021909;28;20486;-59
2023/09/17 03:10:59;;;;;;;6.00;2.23;;;;;;;21.61;74.30;100387.41;5030334;28;20045;-59
2023/09/17 03:13:32;;;;;;;11.63;4.80;;;;;;;22.19;74.39;100481.47;5021929;28;20286;-61
2023/09/17 03:16:03;;;;;;;8.67;2.60;;;;;;;22.29;74.04;100477.31;5031969;28;21279;-61
2023/09/17 03:18:35;;;;;;;8.97;2.13;;;;;;;22.47;74.04;100477.13;5020182;28;20293;-60
2023/09/17 03:21:10;;;;;;;15.00;9.03;;;;;;;22.32;72.77;100439.88;5021170;28;20710;-59
2023/09/17 03:23:40;;;;;;;10.63;2.30;;;;;;;22.62;73.55;100470.84;5031319;28;20360;-60
2023/09/17 03:26:11;;;;;;;10.47;2.80;;;;;;;22.48;72.59;100433.56;5022046;28;20287;-60
2023/09/17 03:28:43;;;;;;;6.50;2.20;;;;;;;22.69;72.81;100480.16;5031525;28;20464;-60
2023/09/17 03:31:14;;;;;;;8.53;2.40;;;;;;;22.65;72.40;100467.97;5021316;28;20356;-61
2023/09/17 03:33:45;;;;;;;6.80;2.07;;;;;;;22.62;72.08;100460.19;5031205;28;20531;-61
2023/09/17 03:36:15;;;;;;;7.53;1.83;;;;;;;22.61;71.87;100455.78;5022370;28;20431;-62
2023/09/17 03:38:45;;;;;;;6.47;2.50;;;;;;;22.37;72.50;100419.13;5035147;28;20644;-60
2023/09/17 03:41:15;;;;;;;7.67;2.00;;;;;;;22.72;72.55;100455.97;5024582;28;20092;-62
2023/09/17 03:43:47;;;;;;;10.87;1.97;;;;;;;22.53;72.57;100442.13;5034175;28;20049;-63
2023/09/17 03:46:18;;;;;;;8.50;1.87;;;;;;;22.68;71.53;100451.78;5023510;28;20063;-59
2023/09/17 03:48:49;;;;;;;6.07;2.20;;;;;;;22.71;72.37;100445.41;5035590;28;20049;-60
2023/09/17 03:51:20;;;;;;;8.53;2.20;;;;;;;22.82;72.94;100451.75;5025639;28;20056;-60
2023/09/17 03:53:50;;;;;;;9.30;2.00;;;;;;;22.74;73.34;100443.44;5034573;28;20052;-61
2023/09/17 03:56:21;;;;;;;9.70;2.40;;;;;;;22.57;73.80;100425.00;5024053;28;20091;-60
2023/09/17 03:58:54;;;;;;;6.77;2.50;;;;;;;22.53;73.98;100431.47;5035120;28;20549;-61
2023/09/17 04:01:24;;;;;;;5.53;1.97;;;;;;;22.45;73.37;100436.44;5024123;28;20064;-60
2023/09/17 04:03:55;;;;;;;9.33;2.20;;;;;;;22.35;74.04;100423.69;5034559;28;20098;-60
2023/09/17 04:06:26;;;;;;;4.37;1.80;;;;;;;22.06;74.18;100393.53;5024054;28;20114;-60
2023/09/17 04:08:56;;;;;;;7.13;2.00;;;;;;;22.19;75.36;100409.63;5034157;28;20040;-61
2023/09/17 04:11:30;;;;;;;5.80;2.10;;;;;;;22.06;75.60;100401.50;5023926;28;20505;-60
2023/09/17 04:14:04;;;;;;;9.37;2.40;;;;;;;22.07;75.36;100402.41;5034029;28;20062;-61
2023/09/17 04:16:36;;;;;;;9.23;2.03;;;;;;;22.06;75.88;100390.03;5023556;28;20072;-61
2023/09/17 04:19:07;;;;;;;5.97;1.70;;;;;;;22.14;76.31;100404.56;5026951;28;20048;-60
2023/09/17 04:21:38;;;;;;;8.50;2.20;;;;;;;22.25;76.45;100406.59;5033988;28;20276;-61
2023/09/17 04:24:12;;;;;;;10.93;2.10;;;;;;;22.13;75.95;100378.06;5023352;28;20053;-60
2023/09/17 04:26:44;;;;;;;6.43;1.90;;;;;;;22.43;76.25;100415.22;5032811;28;20049;-60
2023/09/17 04:29:16;;;;;;;8.03;2.40;;;;;;;22.45;75.84;100412.47;5022067;28;20049;-61
2023/09/17 04:31:47;;;;;;;7.47;1.97;;;;;;;22.46;76.27;100424.81;5034584;28;20045;-60
2023/09/17 04:34:20;;;;;;;11.47;2.00;;;;;;;22.47;76.59;100437.19;5039882;28;20052;-59
2023/09/17 04:36:50;;;;;;;7.63;2.60;;;;;;;22.43;76.02;100425.88;5038868;28;20135;-62
2023/09/17 04:39:21;;;;;;;13.43;4.37;;;;;;;22.31;75.62;100429.28;5023213;28;20464;-59
2023/09/17 04:41:52;;;;;;;21.43;5.53;;;;;;;21.94;75.02;100397.81;5033056;28;20140;-59
2023/09/17 04:44:24;;;;;;;11.70;2.77;;;;;;;22.00;75.76;100440.97;5023718;28;20059;-60
2023/09/17 04:46:55;;;;;;;19.67;7.23;;;;;;;21.94;76.59;100440.41;5032640;28;20044;-61
2023/09/17 04:49:25;;;;;;;7.37;2.80;;;;;;;21.96;77.58;100438.47;5023079;28;20106;-60
2023/09/17 04:51:56;;;;;;;7.20;2.70;;;;;;;22.01;77.45;100440.00;5033646;28;20368;-60
2023/09/17 04:54:26;;;;;;;9.13;2.40;;;;;;;22.03;77.58;100432.78;5023914;28;20374;-62
2023/09/17 04:56:57;;;;;;;5.80;2.40;;;;;;;22.05;77.73;100430.91;5036629;28;20068;-61
2023/09/17 04:59:29;;;;;;;10.20;2.27;;;;;;;22.05;78.25;100430.91;5030089;28;20052;-61
2023/09/17 05:02:00;;;;;;;8.23;2.50;;;;;;;22.06;78.66;100416.63;5024869;28;20107;-62
2023/09/17 05:04:33;;;;;;;6.27;2.67;;;;;;;22.00;78.21;100401.06;5018217;28;20282;-60
2023/09/17 05:07:05;;;;;;;26.80;9.13;;;;;;;21.67;78.50;100362.28;5023169;28;20051;-59
2023/09/17 05:09:36;;;;;;;5.97;2.23;;;;;;;21.94;79.02;100408.47;5019653;28;20278;-61
2023/09/17 05:12:08;;;;;;;16.17;2.73;;;;;;;21.93;79.52;100409.41;5014838;28;20259;-60
2023/09/17 05:14:40;;;;;;;11.30;2.50;;;;;;;21.90;79.63;100404.28;5032939;28;20647;-62
2023/09/17 05:17:13;;;;;;;6.63;2.27;;;;;;;21.86;80.35;100404.56;4995104;28;20305;-62
2023/09/17 05:19:44;;;;;;;8.90;2.00;;;;;;;21.79;80.29;100408.53;5011145;28;20277;-62
2023/09/17 05:22:14;;;;;;;9.17;2.43;;;;;;;21.51;80.86;100379.13;5020745;28;20272;-62
2023/09/17 05:24:45;;;;;;;16.57;2.20;;;;;;;21.70;80.71;100399.31;5029028;28;20272;-60
2023/09/17 05:27:15;;;;;;;10.23;2.23;;;;;;;21.60;80.80;100388.38;5006508;28;20065;-61
2023/09/17 05:29:47;;;;;;;11.17;2.80;;;;;;;21.60;81.30;100387.53;5015502;28;20300;-61
2023/09/17 05:32:18;;;;;;;8.83;3.10;;;;;;;21.67;81.79;100388.88;5027790;28;20107;-62
2023/09/17 05:34:49;;;;;;;11.27;3.27;;;;;;;21.73;81.83;100388.50;5023254;28;20718;-62
2023/09/17 05:37:19;;;;;;;6.77;2.33;;;;;;;21.76;81.96;100388.28;5016831;28;20287;-58
2023/09/17 05:39:50;;;;;;;9.87;2.40;;;;;;;21.75;81.76;100391.91;5014426;28;20761;-60
2023/09/17 05:42:21;;;;;;;7.77;2.27;;;;;;;21.77;81.38;100384.72;5013050;28;20268;-60
2023/09/17 05:44:53;;;;;;;6.23;2.43;;;;;;;21.75;80.82;100381.28;5015697;28;20798;-62
2023/09/17 05:47:23;;;;;;;7.47;2.10;;;;;;;21.72;80.99;100384.13;4990027;28;20285;-61
2023/09/17 05:49:55;;;;;;;6.27;2.23;;;;;;;21.66;80.90;100387.16;4992567;28;20304;-63
2023/09/17 05:52:26;;;;;;;8.60;2.40;;;;;;;21.63;81.03;100376.72;4983123;28;20285;-63
2023/09/17 05:54:56;;;;;;;10.97;2.00;;;;;;;21.59;80.98;100380.50;4992807;28;20049;-63
2023/09/17 05:57:27;;;;;;;9.40;2.97;;;;;;;21.54;81.55;100389.63;4982759;28;20342;-61
2023/09/17 05:59:59;;;;;;;9.43;2.93;;;;;;;21.25;81.18;100334.66;4999710;28;20545;-63
2023/09/17 06:02:31;;;;;;;7.93;2.43;;;;;;;21.42;80.88;100374.41;5004798;28;20317;-59
2023/09/17 06:05:01;;;;;;;7.90;2.63;;;;;;;21.25;80.93;100361.22;5012070;28;20784;-61
2023/09/17 06:07:32;;;;;;;10.40;3.20;;;;;;;21.19;81.79;100361.56;5021278;28;20657;-61
2023/09/17 06:10:04;;;;;;;8.00;2.23;;;;;;;21.13;82.36;100361.94;5031496;28;20283;-62
2023/09/17 06:12:35;;;;;;;12.83;2.90;;;;;;;21.09;82.57;100372.75;5031388;28;20338;-61
2023/09/17 06:15:09;;;;;;;9.20;2.80;;;;;;;21.02;82.95;100366.09;5020905;28;20294;-62
2023/09/17 06:17:40;;;;;;;5.43;2.47;;;;;;;21.00;83.57;100373.28;5032317;28;20661;-62
2023/09/17 06:20:11;;;;;;;6.07;2.37;;;;;;;20.95;83.78;100364.72;5020723;28;20350;-60
2023/09/17 06:22:42;;;;;;;11.00;2.70;;;;;;;20.88;83.20;100364.22;5031179;28;20287;-58
2023/09/17 06:25:13;;;;;;;8.20;2.73;;;;;;;20.84;83.42;100361.81;5021076;28;20282;-63
2023/09/17 06:27:43;;;;;;;17.03;3.50;;;;;;;20.85;83.77;100366.22;5030922;28;20811;-61
2023/09/17 06:30:17;;;;;;;8.30;2.80;;;;;;;20.81;84.26;100367.31;5020997;28;20728;-61
2023/09/17 06:32:48;;;;;;;7.30;2.90;;;;;;;20.68;84.87;100345.91;5029776;28;20275;-61
2023/09/17 06:35:19;;;;;;;13.97;2.60;;;;;;;20.71;84.88;100360.81;5020224;28;20294;-59
2023/09/17 06:37:50;;;;;;;7.87;2.60;;;;;;;20.65;85.92;100357.56;5031463;28;20295;-63
2023/09/17 06:40:20;;;;;;;8.80;2.73;;;;;;;20.63;86.96;100359.44;5019610;28;20409;-61
2023/09/17 06:42:51;;;;;;;6.60;2.50;;;;;;;20.59;87.49;100363.25;5031646;28;20328;-61
2023/09/17 06:45:24;;;;;;;14.40;2.60;;;;;;;20.52;87.23;100361.84;5020832;28;20274;-61
2023/09/17 06:47:54;;;;;;;7.67;2.50;;;;;;;20.46;87.92;100356.84;5027138;28;20369;-62
2023/09/17 06:50:28;;;;;;;9.13;2.70;;;;;;;20.39;88.80;100351.06;5020903;28;20369;-60
2023/09/17 06:52:58;;;;;;;11.17;3.60;;;;;;;20.28;89.98;100355.25;5031495;28;20319;-63
2023/09/17 06:55:29;;;;;;;13.43;7.03;;;;;;;20.26;90.52;100356.16;5020207;28;20290;-62
2023/09/17 06:57:59;;;;;;;10.00;3.90;;;;;;;20.21;91.62;100358.22;5029928;28;20804;-62
2023/09/17 07:00:31;;;;;;;12.27;4.10;;;;;;;20.17;92.25;100351.38;5009494;28;20607;-60
2023/09/17 07:03:02;;;;;;;8.47;3.27;;;;;;;20.15;93.07;100352.41;5012026;28;20291;-62
2023/09/17 07:05:33;;;;;;;7.77;3.30;;;;;;;20.12;93.66;100348.13;5011924;28;20289;-63
2023/09/17 07:08:04;;;;;;;14.07;3.87;;;;;;;20.08;94.34;100349.22;5030840;28;20288;-64
2023/09/17 07:10:34;;;;;;;8.27;2.70;;;;;;;19.97;94.91;100343.66;5019842;28;20268;-61
2023/09/17 07:13:08;;;;;;;9.67;3.30;;;;;;;19.88;96.17;100344.16;5020610;28;20400;-61
2023/09/17 07:15:40;;;;;;;15.20;3.93;;;;;;;19.80;97.29;100350.72;5030234;28;20714;-62
2023/09/17 07:18:12;;;;;;;11.90;3.47;;;;;;;19.76;98.26;100357.09;5020957;28;20744;-62
2023/09/17 07:20:43;;;;;;;16.90;3.60;;;;;;;19.72;98.82;100355.56;5030662;28;20378;-61
2023/09/17 07:23:13;;;;;;;9.40;3.80;;;;;;;19.66;99.24;100355.84;5020797;28;20333;-61
2023/09/17 07:25:46;;;;;;;10.50;3.43;;;;;;;19.58;100.00;100355.41;5030814;28;20413;-61
2023/09/17 07:28:16;;;;;;;8.83;3.20;;;;;;;19.56;100.00;100359.91;5032116;28;20284;-63
2023/09/17 07:30:54;;;;;;;9.03;3.47;;;;;;;19.49;100.00;100358.53;5031483;28;20286;-64
2023/09/17 07:33:24;;;;;;;15.47;4.73;;;;;;;19.34;100.00;100350.41;5019948;28;20313;-60
2023/09/17 07:35:55;;;;;;;14.50;4.10;;;;;;;19.34;100.00;100355.72;5030675;28;20724;-62
2023/09/17 07:38:26;;;;;;;12.83;4.50;;;;;;;19.28;100.00;100356.03;5020276;28;20286;-62
2023/09/17 07:40:57;;;;;;;10.43;3.60;;;;;;;19.29;100.00;100352.44;5031793;28;20772;-63
2023/09/17 07:43:28;;;;;;;13.57;3.83;;;;;;;19.24;100.00;100354.47;5000173;28;20403;-60
2023/09/17 07:46:00;;;;;;;8.67;3.27;;;;;;;19.17;100.00;100343.34;5020375;28;20290;-62
2023/09/17 07:48:31;;;;;;;9.23;3.20;;;;;;;19.10;100.00;100336.66;5012414;28;20306;-62
2023/09/17 07:51:02;;;;;;;10.97;3.10;;;;;;;18.98;100.00;100318.72;5031124;28;20314;-60
2023/09/17 07:53:33;;;;;;;11.67;3.53;;;;;;;18.96;100.00;100329.38;5011133;28;20318;-61
2023/09/17 07:56:03;;;;;;;8.20;3.50;;;;;;;18.91;100.00;100326.13;5026650;28;20290;-63
2023/09/17 07:58:34;;;;;;;7.87;3.50;;;;;;;18.87;100.00;100329.00;5029701;28;20291;-61
2023/09/17 08:01:11;;;;;;;12.03;3.40;;;;;;;18.82;100.00;100337.19;5021905;28;20268;-63
2023/09/17 08:03:41;;;;;;;8.93;3.37;;;;;;;18.77;100.00;100333.91;5031303;28;20725;-62
2023/09/17 08:06:12;;;;;;;11.93;3.40;;;;;;;18.70;100.00;100337.75;5020073;28;20286;-62
2023/09/17 08:08:45;;;;;;;11.20;3.60;;;;;;;18.68;100.00;100334.31;5031894;28;20288;-61
2023/09/17 08:11:19;;;;;;;10.10;3.60;;;;;;;18.65;100.00;100329.19;5020525;28;20275;-61
2023/09/17 08:13:49;;;;;;;10.10;3.27;;;;;;;18.57;100.00;100320.72;5029915;28;20349;-61
2023/09/17 08:16:23;;;;;;;10.73;4.20;;;;;;;18.49;100.00;100316.66;5020218;28;20302;-61
2023/09/17 08:18:54;;;;;;;11.87;3.30;;;;;;;18.54;100.00;100333.19;5030184;28;20798;-63
2023/09/17 08:21:26;;;;;;;8.73;3.30;;;;;;;18.52;100.00;100332.41;5020135;28;20292;-62
2023/09/17 08:23:59;;;;;;;7.73;3.60;;;;;;;18.51;100.00;100327.19;5032794;28;20461;-61
2023/09/17 08:26:30;;;;;;;16.67;5.03;;;;;;;18.50;100.00;100331.63;5024838;28;20402;-62
2023/09/17 08:29:00;;;;;;;11.97;3.77;;;;;;;18.47;100.00;100321.19;5034487;28;20319;-60
2023/09/17 08:31:34;;;;;;;9.27;4.23;;;;;;;18.49;100.00;100329.91;5023901;28;20301;-62
2023/09/17 08:34:04;;;;;;;9.03;4.10;;;;;;;18.48;100.00;100330.84;5026395;28;20295;-62
2023/09/17 08:36:35;;;;;;;15.10;3.80;;;;;;;18.46;100.00;100338.00;5033884;28;20283;-62
2023/09/17 08:39:06;;;;;;;11.70;3.63;;;;;;;18.45;100.00;100328.34;5025546;28;20262;-61
2023/09/17 08:41:38;;;;;;;11.33;3.67;;;;;;;18.20;100.00;100282.84;5033293;28;20283;-61
2023/09/17 08:44:09;;;;;;;14.33;3.67;;;;;;;18.43;100.00;100330.22;5023444;28;20729;-62
2023/09/17 08:46:42;;;;;;;12.47;3.30;;;;;;;18.43;100.00;100319.63;5033277;28;20578;-63
2023/09/17 08:49:13;;;;;;;8.17;3.87;;;;;;;18.41;100.00;100323.28;5024168;28;20298;-62
2023/09/17 08:51:45;;;;;;;9.87;3.90;;;;;;;18.40;100.00;100319.78;5033041;28;20308;-63
2023/09/17 08:54:23;;;;;;;13.50;4.23;;;;;;;18.38;100.00;100320.78;5023761;28;20749;-61
2023/09/17 08:56:56;;;;;;;9.80;4.40;;;;;;;18.32;100.00;100312.22;5034434;28;20286;-65
2023/09/17 08:59:31;;;;;;;15.17;4.93;;;;;;;18.37;100.00;100319.94;5022507;28;20741;-61
2023/09/17 09:02:07;;;;;;;15.07;5.20;;;;;;;18.36;100.00;100318.19;5030297;28;20275;-60
2023/09/17 09:04:40;;;;;;;17.40;6.90;;;;;;;18.22;100.00;100299.47;5022445;28;20307;-62
2023/09/17 09:07:12;;;;;;;14.27;5.70;;;;;;;18.37;100.00;100329.63;5022762;28;20279;-62
2023/09/17 09:09:46;;;;;;;11.27;5.37;;;;;;;18.36;100.00;100320.84;5031441;28;20285;-63
2023/09/17 09:12:18;;;;;;;13.00;4.80;;;;;;;18.31;100.00;100330.78;5023017;28;20375;-62
2023/09/17 09:14:51;;;;;;;14.87;4.67;;;;;;;18.29;100.00;100327.34;5032205;28;20678;-62
2023/09/17 09:17:24;;;;;;;14.10;4.30;;;;;;;18.32;100.00;100337.78;5021658;28;20276;-62
2023/09/17 09:19:57;;;;;;;14.10;4.70;;;;;;;18.31;100.00;100342.22;5031973;28;20698;-61
2023/09/17 09:22:28;;;;;;;9.60;4.43;;;;;;;18.31;100.00;100336.06;5021562;28;20325;-59
2023/09/17 09:25:00;;;;;;;11.57;4.77;;;;;;;18.31;100.00;100344.00;5032452;28;20314;-61
2023/09/17 09:27:32;;;;;;;17.27;4.83;;;;;;;18.30;100.00;100355.53;5019826;28;20315;-62
2023/09/17 09:30:09;;;;;;;9.50;4.10;;;;;;;18.14;100.00;100328.06;5027186;28;20290;-62
2023/09/17 09:32:44;;;;;;;13.27;4.60;;;;;;;18.27;100.00;100355.66;5032337;28;20305;-62
2023/09/17 09:35:16;;;;;;;16.43;4.53;;;;;;;18.27;100.00;100363.59;5021850;28;20310;-62
2023/09/17 09:37:48;;;;;;;14.97;4.33;;;;;;;18.20;100.00;100348.97;5030534;28;20590;-62
2023/09/17 09:40:21;;;;;;;13.27;5.27;;;;;;;18.22;100.00;100358.53;5022436;28;20295;-62
2023/09/17 09:42:53;;;;;;;10.90;5.07;;;;;;;18.20;100.00;100359.53;5030987;28;20418;-62
2023/09/17 09:45:25;;;;;;;14.00;4.80;;;;;;;18.19;100.00;100360.44;5022147;28;20283;-62
2023/09/17 09:47:58;;;;;;;14.37;5.30;;;;;;;18.15;100.00;100362.41;5032473;28;20318;-62
2023/09/17 09:50:31;;;;;;;11.80;4.80;;;;;;;18.08;100.00;100351.22;5022925;28;20367;-63
2023/09/17 09:53:03;;;;;;;11.70;5.33;;;;;;;18.13;100.00;100366.03;5031762;28;20329;-62
2023/09/17 09:55:35;;;;;;;14.93;5.23;;;;;;;17.58;100.00;100277.72;5021860;28;20345;-62
2023/09/17 09:58:07;;;;;;;10.30;4.27;;;;;;;18.15;100.00;100372.13;5021153;28;20314;-62
2023/09/17 10:00:44;;;;;;;15.77;5.30;;;;;;;18.15;100.00;100372.13;5031769;28;20305;-61
2023/09/17 10:03:20;;;;;;;15.20;5.43;;;;;;;17.92;100.00;100333.50;5021373;28;20789;-64
2023/09/17 10:05:52;;;;;;;14.40;6.67;;;;;;;18.13;100.00;100369.53;5030689;28;20353;-63
2023/09/17 10:08:24;;;;;;;11.90;5.37;;;;;;;18.13;100.00;100373.97;5022525;28;20385;-63
2023/09/17 10:10:57;;;;;;;12.93;5.53;;;;;;;18.10;100.00;100375.81;5033016;28;20318;-64
2023/09/17 10:13:30;;;;;;;13.37;5.47;;;;;;;17.84;100.00;100337.34;5021058;28;20291;-62
2023/09/17 10:16:02;;;;;;;13.70;5.07;;;;;;;17.86;100.00;100345.22;5030501;28;20303;-60
2023/09/17 10:18:37;;;;;;;14.77;5.70;;;;;;;18.07;100.00;100391.84;5020318;28;20291;-61
2023/09/17 10:21:11;;;;;;;11.90;5.60;;;;;;;17.96;100.00;100357.06;5020483;28;20319;-60
2023/09/17 10:23:44;;;;;;;15.07;6.37;;;;;;;18.07;100.00;100381.25;5032072;28;20294;-59
2023/09/17 10:26:18;;;;;;;14.30;5.77;;;;;;;18.01;100.00;100376.22;5022350;28;20287;-62
2023/09/17 10:28:52;;;;;;;13.77;5.57;;;;;;;17.93;100.00;100367.81;5032188;28;20284;-64
2023/09/17 10:31:24;;;;;;;13.07;5.00;;;;;;;17.98;100.00;100381.66;5021120;28;20271;-63
2023/09/17 10:33:59;;;;;;;10.00;4.70;;;;;;;17.96;100.00;100377.38;5030806;28;20997;-63
2023/09/17 10:36:37;;;;;;;17.50;5.17;;;;;;;17.92;100.00;100376.63;5019640;28;20295;-61
2023/09/17 10:39:10;;;;;;;13.40;5.57;;;;;;;17.89;100.00;100382.94;5021457;28;20301;-63
2023/09/17 10:41:42;;;;;;;13.53;5.00;;;;;;;17.88;100.00;100380.38;5031178;28;20278;-62
2023/09/17 10:44:16;;;;;;;9.93;5.50;;;;;;;17.83;100.00;100369.16;5020284;28;20728;-62
2023/09/17 10:46:58;;;;;;;19.67;8.63;;;;;;;17.77;100.00;100372.00;5029646;28;20287;-62
2023/09/17 10:52:34;;;;;;;14.07;7.53;;;;;;;17.42;100.00;100325.09;4968295;28;20827;-61
2023/09/17 10:55:07;;;;;;;13.57;6.83;;;;;;;17.61;100.00;100354.19;4968127;28;20293;-61
2023/09/17 11:01:02;;;;;;;11.07;5.50;;;;;;;17.54;100.00;100352.75;4919005;28;20341;-60
2023/09/17 11:03:35;;;;;;;12.13;6.00;;;;;;;17.47;100.00;100340.72;4929419;28;20293;-61
2023/09/17 11:06:29;;;;;;;10.93;5.97;;;;;;;17.51;100.00;100355.53;4929474;28;20329;-60
2023/09/17 11:09:04;;;;;;;11.90;5.17;;;;;;;17.50;100.00;100356.47;4939657;28;20351;-62
2023/09/17 11:11:37;;;;;;;11.37;4.80;;;;;;;17.45;100.00;100355.81;4931257;28;20345;-61
2023/09/17 11:14:13;;;;;;;10.47;5.20;;;;;;;17.49;100.00;100352.09;4929818;28;20286;-60
2023/09/17 11:16:48;;;;;;;10.60;4.93;;;;;;;17.51;100.00;100359.97;4939499;28;20281;-62
2023/09/17 11:19:26;;;;;;;13.97;5.63;;;;;;;17.51;100.00;100352.88;4929308;28;20274;-62
2023/09/17 11:22:14;;;;;;;17.03;6.67;;;;;;;17.50;100.00;100348.53;4940281;28;20275;-60
2023/09/17 11:24:47;;;;;;;14.57;6.03;;;;;;;17.51;100.00;100342.31;4938987;28;20342;-61
2023/09/17 11:27:21;;;;;;;14.13;5.90;;;;;;;17.52;100.00;100341.38;4929411;28;20297;-62
2023/09/17 11:29:53;;;;;;;13.87;5.53;;;;;;;17.50;100.00;100335.34;4960643;28;20289;-63
2023/09/17 11:32:33;;;;;;;11.10;5.60;;;;;;;17.53;100.00;100336.97;5009312;28;20288;-60
2023/09/17 11:35:17;;;;;;;14.93;5.60;;;;;;;17.51;100.00;100342.31;5022766;28;20333;-60
2023/09/17 11:37:55;;;;;;;16.10;5.17;;;;;;;17.47;100.00;100332.81;5029752;28;20383;-62
2023/09/17 11:40:39;;;;;;;8.47;5.07;;;;;;;17.38;100.00;100312.09;5020923;28;20362;-63
2023/09/17 11:43:11;;;;;;;10.13;4.90;;;;;;;17.32;100.00;100307.06;5021492;28;20272;-62
2023/09/17 11:45:43;;;;;;;13.40;5.73;;;;;;;17.39;100.00;100329.66;5030970;28;21020;-62
2023/09/17 11:48:15;;;;;;;11.10;5.93;;;;;;;17.34;100.00;100331.63;5019354;28;20310;-62